createdAt,value
2023-01-08T00:00:29.492Z,82.13
2023-01-08T00:02:57.643Z,79.57
2023-01-08T00:05:27.156Z,82.73
2023-01-08T00:07:55.155Z,77.40
2023-01-08T00:10:23.090Z,85.00
2023-01-08T00:12:51.023Z,92.03
2023-01-08T00:15:18.992Z,83.47
2023-01-08T00:17:46.962Z,88.50
2023-01-08T00:20:14.907Z,78.87
2023-01-08T00:22:44.161Z,89.53
2023-01-08T00:25:12.035Z,85.20
2023-01-08T00:27:39.949Z,81.10
2023-01-08T00:30:09.023Z,84.40
2023-01-08T00:32:36.981Z,82.43
2023-01-08T00:35:05.800Z,94.47
2023-01-08T00:37:34.425Z,95.53
2023-01-08T00:40:03.757Z,85.93
2023-01-08T00:42:31.643Z,85.27
2023-01-08T00:44:59.503Z,83.63
2023-01-08T00:47:27.427Z,79.53
2023-01-08T00:49:55.339Z,81.63
2023-01-08T00:52:23.244Z,86.90
2023-01-08T00:54:51.254Z,82.53
2023-01-08T00:57:20.566Z,84.40
2023-01-08T00:59:48.628Z,84.40
2023-01-08T01:02:17.000Z,78.20
2023-01-08T01:04:45.027Z,76.10
2023-01-08T01:07:12.920Z,75.37
2023-01-08T01:09:40.907Z,77.73
2023-01-08T01:12:09.126Z,72.30
2023-01-08T01:14:38.800Z,84.00
2023-01-08T01:17:06.725Z,72.33
2023-01-08T01:19:34.764Z,67.27
2023-01-08T01:22:02.836Z,61.70
2023-01-08T01:24:30.814Z,61.50
2023-01-08T01:26:58.740Z,63.20
2023-01-08T01:29:27.259Z,59.57
2023-01-08T01:32:00.158Z,60.23
2023-01-08T01:34:28.211Z,62.00
2023-01-08T01:36:56.195Z,61.40
2023-01-08T01:39:24.411Z,64.20
2023-01-08T01:41:53.272Z,62.23
2023-01-08T01:44:40.299Z,55.90
2023-01-08T01:47:17.043Z,54.00
2023-01-08T01:49:51.042Z,57.10
2023-01-08T01:52:20.779Z,59.27
2023-01-08T01:54:49.589Z,59.47
2023-01-08T01:57:17.505Z,56.33
2023-01-08T01:59:46.894Z,54.53
2023-01-08T02:02:16.334Z,54.83
2023-01-08T02:04:44.353Z,61.40
2023-01-08T02:07:16.851Z,51.70
2023-01-08T02:09:49.650Z,53.87
2023-01-08T02:12:24.085Z,56.93
2023-01-08T02:15:03.411Z,58.20
2023-01-08T02:17:38.750Z,57.33
2023-01-08T02:20:12.871Z,56.23
2023-01-08T02:22:52.582Z,51.37
2023-01-08T02:25:31.680Z,54.97
2023-01-08T02:28:02.733Z,57.03
2023-01-08T02:30:31.957Z,51.40
2023-01-08T02:32:59.915Z,51.23
2023-01-08T02:35:38.039Z,55.60
2023-01-08T02:38:06.257Z,62.77
2023-01-08T02:40:40.215Z,58.00
2023-01-08T02:43:15.184Z,54.37
2023-01-08T02:45:48.072Z,52.40
2023-01-08T02:48:22.119Z,55.80
2023-01-08T02:50:54.663Z,57.37
2023-01-08T02:53:26.164Z,51.83
2023-01-08T02:55:59.406Z,55.77
2023-01-08T02:58:33.072Z,54.03
2023-01-08T03:01:03.154Z,52.40
2023-01-08T03:03:32.325Z,48.67
2023-01-08T03:06:03.764Z,53.43
2023-01-08T03:08:33.095Z,46.87
2023-01-08T03:11:06.348Z,49.63
2023-01-08T03:13:39.754Z,53.27
2023-01-08T03:16:12.797Z,45.73
2023-01-08T03:18:46.645Z,42.70
2023-01-08T03:21:16.674Z,44.37
2023-01-08T03:23:46.271Z,40.87
2023-01-08T03:26:16.385Z,39.67
2023-01-08T03:28:48.509Z,39.47
2023-01-08T03:31:18.424Z,41.13
2023-01-08T03:33:47.783Z,44.97
2023-01-08T03:36:19.687Z,43.90
2023-01-08T03:38:53.353Z,35.60
2023-01-08T03:41:23.008Z,38.53
2023-01-08T03:43:52.385Z,34.83
2023-01-08T03:46:25.119Z,31.63
2023-01-08T03:48:53.255Z,32.60
2023-01-08T03:51:21.232Z,38.93
2023-01-08T03:53:50.411Z,29.27
2023-01-08T03:56:18.360Z,33.43
2023-01-08T03:58:46.509Z,34.87
2023-01-08T04:01:15.896Z,29.87
2023-01-08T04:03:43.902Z,36.17
2023-01-08T04:06:11.843Z,29.90
2023-01-08T04:08:39.771Z,35.43
2023-01-08T04:11:07.753Z,35.70
2023-01-08T04:13:35.694Z,35.87
2023-01-08T04:16:03.976Z,34.93
2023-01-08T04:18:33.555Z,33.43
2023-01-08T04:21:01.861Z,29.70
2023-01-08T04:23:29.802Z,30.43
2023-01-08T04:25:57.719Z,32.80
2023-01-08T04:28:25.736Z,30.63
2023-01-08T04:30:53.714Z,33.40
2023-01-08T04:33:21.656Z,31.67
2023-01-08T04:35:50.905Z,31.40
2023-01-08T04:38:19.157Z,34.40
2023-01-08T04:40:47.100Z,36.47
2023-01-08T04:43:15.118Z,31.20
2023-01-08T04:45:43.050Z,33.20
2023-01-08T04:48:10.990Z,31.40
2023-01-08T04:50:38.931Z,32.87
2023-01-08T04:53:08.161Z,31.57
2023-01-08T04:55:37.959Z,30.37
2023-01-08T04:58:07.565Z,30.00
2023-01-08T05:00:35.705Z,34.40
2023-01-08T05:03:03.621Z,36.90
2023-01-08T05:05:31.581Z,36.60
2023-01-08T05:07:59.998Z,28.17
2023-01-08T05:10:29.342Z,31.87
2023-01-08T05:12:59.714Z,30.17
2023-01-08T05:15:27.810Z,27.90
2023-01-08T05:18:00.369Z,30.50
2023-01-08T05:20:28.386Z,29.97
2023-01-08T05:22:56.541Z,31.20
2023-01-08T05:25:24.546Z,34.37
2023-01-08T05:27:54.493Z,27.47
2023-01-08T05:30:22.452Z,27.50
2023-01-08T05:32:50.545Z,33.73
2023-01-08T05:35:18.694Z,30.80
2023-01-08T05:37:46.734Z,33.93
2023-01-08T05:40:14.720Z,34.57
2023-01-08T05:42:42.645Z,35.77
2023-01-08T05:45:12.420Z,28.50
2023-01-08T05:47:40.442Z,32.13
2023-01-08T05:50:09.143Z,37.47
2023-01-08T05:52:37.085Z,29.60
2023-01-08T05:55:05.491Z,26.53
2023-01-08T05:57:33.370Z,31.57
2023-01-08T06:00:01.394Z,27.70
2023-01-08T06:02:40.815Z,31.77
2023-01-08T06:05:09.120Z,26.03
2023-01-08T06:07:37.002Z,24.27
2023-01-08T06:10:05.513Z,27.33
2023-01-08T06:12:33.745Z,29.30
2023-01-08T06:15:01.670Z,28.83
2023-01-08T06:17:29.627Z,25.37
2023-01-08T06:19:58.960Z,30.10
2023-01-08T06:22:27.439Z,23.47
2023-01-08T06:24:55.462Z,22.50
2023-01-08T06:27:23.375Z,25.33
2023-01-08T06:29:51.371Z,25.07
2023-01-08T06:32:19.698Z,26.97
2023-01-08T06:34:47.666Z,27.87
2023-01-08T06:37:16.929Z,24.20
2023-01-08T06:39:44.835Z,29.20
2023-01-08T06:42:12.860Z,23.80
2023-01-08T06:44:40.800Z,25.37
2023-01-08T06:47:08.716Z,23.77
2023-01-08T06:49:36.648Z,22.93
2023-01-08T06:52:04.633Z,26.03
2023-01-08T06:54:33.933Z,23.43
2023-01-08T06:57:01.895Z,27.17
2023-01-08T06:59:29.905Z,24.53
2023-01-08T07:01:58.224Z,30.30
2023-01-08T07:04:26.491Z,24.80
2023-01-08T07:06:54.672Z,23.33
2023-01-08T07:09:22.750Z,31.37
2023-01-08T07:11:52.106Z,21.70
2023-01-08T07:14:20.146Z,22.47
2023-01-08T07:16:48.039Z,22.60
2023-01-08T07:19:15.996Z,27.20
2023-01-08T07:21:43.932Z,27.87
2023-01-08T07:24:11.984Z,25.70
2023-01-08T07:26:40.400Z,25.43
2023-01-08T07:29:09.932Z,25.40
2023-01-08T07:31:37.910Z,19.83
2023-01-08T07:34:06.269Z,20.77
2023-01-08T07:36:34.289Z,23.03
2023-01-08T07:39:02.350Z,22.03
2023-01-08T07:41:30.312Z,25.90
2023-01-08T07:43:58.431Z,24.17
2023-01-08T07:46:27.844Z,21.67
2023-01-08T07:48:57.297Z,24.00
2023-01-08T07:51:25.300Z,26.07
2023-01-08T07:53:53.235Z,21.87
2023-01-08T07:56:21.195Z,28.07
2023-01-08T07:58:49.163Z,28.47
2023-01-08T08:01:17.283Z,29.13
2023-01-08T08:03:46.625Z,25.33
2023-01-08T08:06:14.540Z,28.50
2023-01-08T08:08:42.542Z,30.83
2023-01-08T08:11:10.794Z,26.83
2023-01-08T08:13:42.564Z,33.83
2023-01-08T08:16:10.611Z,21.90
2023-01-08T08:18:38.554Z,26.07
2023-01-08T08:21:08.025Z,29.80
2023-01-08T08:23:36.887Z,24.47
2023-01-08T08:26:05.507Z,23.33
2023-01-08T08:28:33.446Z,21.17
2023-01-08T08:31:01.368Z,28.43
2023-01-08T08:33:29.530Z,23.30
2023-01-08T08:35:57.589Z,22.90
2023-01-08T08:38:27.175Z,23.47
2023-01-08T08:40:55.425Z,24.47
2023-01-08T08:43:23.440Z,27.50
2023-01-08T08:45:51.367Z,23.37
2023-01-08T08:48:19.316Z,30.33
2023-01-08T08:50:47.265Z,32.70
2023-01-08T08:53:15.206Z,22.87
2023-01-08T08:55:44.574Z,24.47
2023-01-08T08:58:14.286Z,38.20
2023-01-08T09:00:43.583Z,37.67
2023-01-08T09:03:14.809Z,27.50
2023-01-08T09:05:43.904Z,31.23
2023-01-08T09:08:12.132Z,24.60
2023-01-08T09:10:42.595Z,26.30
2023-01-08T09:13:12.573Z,26.80
2023-01-08T09:15:40.688Z,30.63
2023-01-08T09:18:08.585Z,32.83
2023-01-08T09:20:36.546Z,27.43
2023-01-08T09:23:05.035Z,30.20
2023-01-08T09:25:33.040Z,29.77
2023-01-08T09:28:02.080Z,31.80
2023-01-08T09:30:31.508Z,31.67
2023-01-08T09:33:02.230Z,22.13
2023-01-08T09:35:31.339Z,25.63
2023-01-08T09:37:59.896Z,28.00
2023-01-08T09:40:33.167Z,25.90
2023-01-08T09:43:02.973Z,25.50
2023-01-08T09:45:35.026Z,22.20
2023-01-08T09:48:06.954Z,24.93
2023-01-08T09:50:35.649Z,26.77
2023-01-08T09:53:03.790Z,21.90
2023-01-08T09:55:35.073Z,26.07
2023-01-08T09:58:03.623Z,34.13
2023-01-08T10:00:34.856Z,26.90
2023-01-08T10:03:03.363Z,32.03
2023-01-08T10:05:31.891Z,26.80
2023-01-08T10:07:59.854Z,23.67
2023-01-08T10:10:31.714Z,26.40
2023-01-08T10:13:00.228Z,34.73
2023-01-08T10:15:28.391Z,29.43
2023-01-08T10:18:08.284Z,22.60
2023-01-08T10:20:36.213Z,26.23
2023-01-08T10:23:12.497Z,25.77
2023-01-08T10:25:54.464Z,25.10
2023-01-08T10:28:24.448Z,26.30
2023-01-08T10:30:54.111Z,23.13
2023-01-08T10:33:26.002Z,23.80
2023-01-08T10:35:56.714Z,26.60
2023-01-08T10:38:28.244Z,19.67
2023-01-08T10:40:57.428Z,23.30
2023-01-08T10:43:29.625Z,23.57
2023-01-08T10:46:00.935Z,20.10
2023-01-08T10:48:35.180Z,23.57
2023-01-08T10:51:08.055Z,24.43
2023-01-08T10:53:36.136Z,21.63
2023-01-08T10:56:05.941Z,21.93
2023-01-08T10:58:42.711Z,20.23
2023-01-08T11:01:12.997Z,18.67
2023-01-08T11:03:42.917Z,24.10
2023-01-08T11:06:17.849Z,27.27
2023-01-08T11:08:52.313Z,24.87
2023-01-08T11:11:20.987Z,27.40
2023-01-08T11:13:59.484Z,24.23
2023-01-08T11:16:35.781Z,22.10
2023-01-08T11:19:06.259Z,24.33
2023-01-08T11:21:36.164Z,20.63
2023-01-08T11:24:13.543Z,19.00
2023-01-08T11:26:45.125Z,23.17
2023-01-08T11:29:17.836Z,26.90
2023-01-08T11:31:54.146Z,27.00
2023-01-08T11:34:29.655Z,25.97
2023-01-08T11:37:03.557Z,28.87
2023-01-08T11:39:32.250Z,32.13
2023-01-08T11:42:15.801Z,27.90
2023-01-08T11:44:58.534Z,32.13
2023-01-08T11:47:45.002Z,28.67
2023-01-08T11:50:21.792Z,28.77
2023-01-08T11:53:11.002Z,30.30
2023-01-08T11:55:52.940Z,25.77
2023-01-08T11:58:29.165Z,28.20
2023-01-08T12:01:28.175Z,31.73
2023-01-08T12:04:13.688Z,29.60
2023-01-08T12:06:50.589Z,29.50
2023-01-08T12:09:28.329Z,29.00
2023-01-08T12:12:03.805Z,34.97
2023-01-08T12:14:49.800Z,26.60
2023-01-08T12:17:39.644Z,30.90
2023-01-08T12:20:18.953Z,31.73
2023-01-08T12:22:56.254Z,34.57
2023-01-08T12:25:46.282Z,33.33
2023-01-08T12:28:40.546Z,27.37
2023-01-08T12:31:27.538Z,31.53
2023-01-08T12:33:58.217Z,31.30
2023-01-08T12:36:30.424Z,33.37
2023-01-08T12:39:04.058Z,30.67
2023-01-08T12:41:34.868Z,34.47
2023-01-08T12:44:05.156Z,34.87
2023-01-08T12:46:35.436Z,40.10
2023-01-08T12:49:05.813Z,36.97
2023-01-08T12:51:37.779Z,32.93
2023-01-08T12:54:19.029Z,34.23
2023-01-08T12:56:53.471Z,35.87
2023-01-08T12:59:32.960Z,33.43
2023-01-08T13:02:09.069Z,40.10
2023-01-08T13:04:42.469Z,38.93
2023-01-08T13:07:19.197Z,36.50
2023-01-08T13:09:56.081Z,30.73
2023-01-08T13:12:32.901Z,34.80
2023-01-08T13:15:01.027Z,41.10
2023-01-08T13:17:29.946Z,36.93
2023-01-08T13:20:01.880Z,33.70
2023-01-08T13:22:31.389Z,36.07
2023-01-08T13:25:32.706Z,33.00
2023-01-08T13:28:01.108Z,36.83
2023-01-08T13:30:39.358Z,34.60
2023-01-08T13:33:28.046Z,35.63
2023-01-08T13:36:15.477Z,33.33
2023-01-08T13:38:44.192Z,36.00
2023-01-08T13:41:30.443Z,35.23
2023-01-08T13:44:02.397Z,36.10
2023-01-08T13:46:30.541Z,39.80
2023-01-08T13:49:05.259Z,34.23
2023-01-08T13:51:41.682Z,38.30
2023-01-08T13:54:21.545Z,39.03
2023-01-08T13:56:56.326Z,40.23
2023-01-08T13:59:35.108Z,34.07
2023-01-08T14:02:03.245Z,40.27
2023-01-08T14:04:31.328Z,37.23
2023-01-08T14:07:15.745Z,41.40
2023-01-08T14:09:43.801Z,41.03
2023-01-08T14:12:17.109Z,41.07
2023-01-08T14:14:49.567Z,38.40
2023-01-08T14:17:19.027Z,40.57
2023-01-08T14:19:47.258Z,46.27
2023-01-08T14:22:21.003Z,40.77
2023-01-08T14:24:55.569Z,42.40
2023-01-08T14:27:27.268Z,43.37
2023-01-08T14:29:55.432Z,43.83
2023-01-08T14:32:25.941Z,41.67
2023-01-08T14:34:55.865Z,43.27
2023-01-08T14:37:23.878Z,48.20
2023-01-08T14:39:54.757Z,42.50
2023-01-08T14:42:47.139Z,44.87
2023-01-08T14:45:21.480Z,44.37
2023-01-08T14:47:51.836Z,46.33
2023-01-08T14:50:24.616Z,41.57
2023-01-08T14:52:53.913Z,43.17
2023-01-08T14:55:22.821Z,49.70
2023-01-08T14:57:54.444Z,47.23
2023-01-08T15:00:26.243Z,47.53
2023-01-08T15:02:54.676Z,50.93
2023-01-08T15:05:27.700Z,51.07
2023-01-08T15:07:58.928Z,45.73
2023-01-08T15:10:36.050Z,49.13
2023-01-08T15:13:07.648Z,46.87
2023-01-08T15:15:54.763Z,51.27
2023-01-08T15:18:23.056Z,46.37
2023-01-08T15:20:51.956Z,45.83
2023-01-08T15:23:28.035Z,48.33
2023-01-08T15:25:57.684Z,49.13
2023-01-08T15:28:27.447Z,47.83
2023-01-08T15:30:57.231Z,47.30
2023-01-08T15:33:26.976Z,45.90
2023-01-08T15:35:54.953Z,43.80
2023-01-08T15:38:23.888Z,47.73
2023-01-08T15:40:53.537Z,45.10
2023-01-08T15:43:21.548Z,46.17
2023-01-08T15:45:51.808Z,48.30
2023-01-08T15:48:19.809Z,53.67
2023-01-08T15:50:47.849Z,49.50
2023-01-08T15:53:19.233Z,45.73
2023-01-08T15:55:47.400Z,50.47
2023-01-08T15:58:16.558Z,48.97
2023-01-08T16:00:46.500Z,47.90
2023-01-08T16:03:17.352Z,62.73
2023-01-08T16:05:45.378Z,47.37
2023-01-08T16:08:13.315Z,57.07
2023-01-08T16:10:41.223Z,55.90
2023-01-08T16:13:12.015Z,57.60
2023-01-08T16:15:41.008Z,43.20
2023-01-08T16:18:08.911Z,51.43
2023-01-08T16:20:38.429Z,43.87
2023-01-08T16:23:06.415Z,51.47
2023-01-08T16:25:34.341Z,40.90
2023-01-08T16:28:03.338Z,47.37
2023-01-08T16:30:31.538Z,43.10
2023-01-08T16:32:59.476Z,44.17
2023-01-08T16:35:27.517Z,48.10
2023-01-08T16:37:57.004Z,46.10
2023-01-08T16:40:24.972Z,44.30
2023-01-08T16:42:52.887Z,47.73
2023-01-08T16:45:23.019Z,46.27
2023-01-08T16:47:52.213Z,46.33
2023-01-08T16:50:20.426Z,51.77
2023-01-08T16:52:50.209Z,47.40
2023-01-08T16:55:19.771Z,43.40
2023-01-08T16:57:47.870Z,43.87
2023-01-08T17:00:16.697Z,45.67
2023-01-08T17:02:44.708Z,41.40
2023-01-08T17:05:13.037Z,43.13
2023-01-08T17:07:41.111Z,44.33
2023-01-08T17:10:10.441Z,47.43
2023-01-08T17:12:39.889Z,46.33
2023-01-08T17:15:08.928Z,46.23
2023-01-08T17:17:36.909Z,46.17
2023-01-08T17:20:05.591Z,39.87
2023-01-08T17:22:33.609Z,47.83
2023-01-08T17:25:01.597Z,41.63
2023-01-08T17:27:29.510Z,48.60
2023-01-08T17:29:58.810Z,44.60
2023-01-08T17:32:27.068Z,39.70
2023-01-08T17:34:55.002Z,47.77
2023-01-08T17:37:23.164Z,45.27
2023-01-08T17:39:51.235Z,44.17
2023-01-08T17:42:25.385Z,45.17
2023-01-08T17:44:53.871Z,41.07
2023-01-08T17:47:23.992Z,47.33
2023-01-08T17:50:17.287Z,50.43
2023-01-08T17:52:45.212Z,47.83
2023-01-08T17:55:13.301Z,46.50
2023-01-08T17:57:41.315Z,44.07
2023-01-08T18:00:10.677Z,49.03
2023-01-08T18:02:40.104Z,51.00
2023-01-08T18:05:09.233Z,50.33
2023-01-08T18:07:37.577Z,48.63
2023-01-08T18:10:07.120Z,50.47
2023-01-08T18:12:35.220Z,47.77
2023-01-08T18:15:03.209Z,47.67
2023-01-08T18:17:32.122Z,43.53
2023-01-08T18:20:01.600Z,50.33
2023-01-08T18:22:29.681Z,48.87
2023-01-08T18:24:57.806Z,43.20
2023-01-08T18:27:25.747Z,45.97
2023-01-08T18:29:54.772Z,48.90
2023-01-08T18:32:25.938Z,47.67
2023-01-08T18:34:53.926Z,50.00
2023-01-08T18:37:23.658Z,43.53
2023-01-08T18:39:51.800Z,45.63
2023-01-08T18:42:28.741Z,48.70
2023-01-08T18:44:57.933Z,45.13
2023-01-08T18:47:28.895Z,44.80
2023-01-08T18:49:59.237Z,46.57
2023-01-08T18:52:28.699Z,56.00
2023-01-08T18:54:57.625Z,52.40
2023-01-08T18:57:25.529Z,55.90
2023-01-08T18:59:53.566Z,57.53
2023-01-08T19:02:23.562Z,48.47
2023-01-08T19:04:51.837Z,46.77
2023-01-08T19:07:20.565Z,48.50
2023-01-08T19:09:50.183Z,50.73
2023-01-08T19:12:18.155Z,52.13
2023-01-08T19:14:47.161Z,49.00
2023-01-08T19:17:15.322Z,52.30
2023-01-08T19:19:43.453Z,56.20
2023-01-08T19:22:11.404Z,55.63
2023-01-08T19:24:39.332Z,51.40
2023-01-08T19:27:08.803Z,51.73
2023-01-08T19:29:37.146Z,53.20
2023-01-08T19:32:07.071Z,55.07
2023-01-08T19:34:35.008Z,48.37
2023-01-08T19:37:03.216Z,56.77
2023-01-08T19:39:31.386Z,53.67
2023-01-08T19:42:17.285Z,52.77
2023-01-08T19:44:48.379Z,54.97
2023-01-08T19:47:16.365Z,65.53
2023-01-08T19:49:47.492Z,60.50
2023-01-08T19:52:16.242Z,57.40
2023-01-08T19:54:44.249Z,60.70
2023-01-08T19:57:12.342Z,53.23
2023-01-08T19:59:40.464Z,54.93
2023-01-08T20:02:14.412Z,53.80
2023-01-08T20:04:43.607Z,55.60
2023-01-08T20:07:12.019Z,56.20
2023-01-08T20:09:40.329Z,56.10
2023-01-08T20:12:08.880Z,59.33
2023-01-08T20:14:36.871Z,59.80
2023-01-08T20:17:05.264Z,58.47
2023-01-08T20:19:34.912Z,60.27
2023-01-08T20:22:02.895Z,60.60
2023-01-08T20:24:31.000Z,63.50
2023-01-08T20:26:59.135Z,60.07
2023-01-08T20:29:27.502Z,64.00
2023-01-08T20:31:57.530Z,59.77
2023-01-08T20:34:26.270Z,60.93
2023-01-08T20:36:56.491Z,63.27
2023-01-08T20:39:24.751Z,53.53
2023-01-08T20:41:55.852Z,63.53
2023-01-08T20:44:31.976Z,54.37
2023-01-08T20:47:00.386Z,53.03
2023-01-08T20:49:29.710Z,59.40
2023-01-08T20:52:00.376Z,57.20
2023-01-08T20:54:29.989Z,59.30
2023-01-08T20:56:58.907Z,55.43
2023-01-08T20:59:27.673Z,56.83
2023-01-08T21:01:55.850Z,53.67
2023-01-08T21:04:25.309Z,57.97
2023-01-08T21:06:53.307Z,57.47
2023-01-08T21:09:22.581Z,63.70
2023-01-08T21:11:50.749Z,58.73
2023-01-08T21:14:18.785Z,61.40
2023-01-08T21:16:46.805Z,58.57
2023-01-08T21:19:15.675Z,59.93
2023-01-08T21:21:43.851Z,59.90
2023-01-08T21:24:13.888Z,55.60
2023-01-08T21:26:45.168Z,58.73
2023-01-08T21:29:13.122Z,59.23
2023-01-08T21:31:41.113Z,61.60
2023-01-08T21:34:10.310Z,53.60
2023-01-08T21:36:39.226Z,59.93
2023-01-08T21:39:07.356Z,53.30
2023-01-08T21:41:53.413Z,58.60
2023-01-08T21:44:42.296Z,64.33
2023-01-08T21:47:13.160Z,62.40
2023-01-08T21:49:41.537Z,58.87
2023-01-08T21:52:27.205Z,60.50
2023-01-08T21:54:56.179Z,52.70
2023-01-08T21:57:25.420Z,48.93
2023-01-08T21:59:55.246Z,52.10
2023-01-08T22:02:25.098Z,57.37
2023-01-08T22:04:56.227Z,57.80
2023-01-08T22:07:24.374Z,60.73
2023-01-08T22:09:52.345Z,63.40
2023-01-08T22:12:20.428Z,60.47
2023-01-08T22:14:48.384Z,64.57
2023-01-08T22:17:17.674Z,62.77
2023-01-08T22:19:45.620Z,59.40
2023-01-08T22:22:13.943Z,62.50
2023-01-08T22:24:42.365Z,63.50
2023-01-08T22:27:10.355Z,60.83
2023-01-08T22:29:38.669Z,61.60
2023-01-08T22:32:06.971Z,58.47
2023-01-08T22:34:36.753Z,58.53
2023-01-08T22:37:04.803Z,60.33
2023-01-08T22:39:33.009Z,54.30
2023-01-08T22:42:01.134Z,56.73
2023-01-08T22:44:29.074Z,63.50
2023-01-08T22:46:59.092Z,62.03
2023-01-08T22:49:27.057Z,63.63
2023-01-08T22:51:56.354Z,60.47
2023-01-08T22:54:24.235Z,60.93
2023-01-08T22:56:52.143Z,57.60
2023-01-08T22:59:21.109Z,63.97
2023-01-08T23:01:49.257Z,61.03
2023-01-08T23:04:17.391Z,62.13
2023-01-08T23:06:45.459Z,63.93
2023-01-08T23:09:15.056Z,58.70
2023-01-08T23:11:43.036Z,59.13
2023-01-08T23:14:13.794Z,59.03
2023-01-08T23:16:41.977Z,57.23
2023-01-08T23:19:10.015Z,54.10
2023-01-08T23:21:38.687Z,56.50
2023-01-08T23:24:08.176Z,60.27
2023-01-08T23:26:37.453Z,58.00
2023-01-08T23:29:05.438Z,58.67
2023-01-08T23:31:37.577Z,62.20
2023-01-08T23:34:06.527Z,60.37
2023-01-08T23:36:34.634Z,62.63
2023-01-08T23:39:02.841Z,54.83
2023-01-08T23:41:35.188Z,59.13
2023-01-08T23:44:07.192Z,52.60
2023-01-08T23:46:35.507Z,58.07
2023-01-08T23:49:03.398Z,61.27
2023-01-08T23:51:31.530Z,57.70
2023-01-08T23:53:59.588Z,55.57
2023-01-08T23:56:27.879Z,59.93
2023-01-08T23:58:56.005Z,63.57
